Time;durP1;ratioP1;P1;durP2;ratioP2;P2;SDS_P1;SDS_P2;PMS_P1;PMS_P2;Temp;Humidity;BMP_temperature;BMP_pressure;BME280_temperature;BME280_humidity;BME280_pressure;Samples;Min_cycle;Max_cycle;Signal;HPM_P1;HPM_P2
2022/03/15 14:11:29;;;;;;;;;12.67;12.67;;;;;14.69;64.22;101292.53;6148676;22;1699159;-79
2022/03/15 14:13:57;;;;;;;;;18.00;17.25;;;;;14.65;64.29;101291.09;6241494;22;46155;-80
2022/03/15 14:16:41;;;;;;;;;22.25;20.00;;;;;14.66;64.12;101287.50;6268216;22;45712;-79
2022/03/15 14:19:14;;;;;;;;;22.00;19.00;;;;;14.64;64.51;101291.19;6267626;22;45512;-79
2022/03/15 14:21:41;;;;;;;;;26.00;23.75;;;;;14.68;64.40;101309.31;6240778;22;47220;-79
2022/03/15 14:24:28;;;;;;;;;18.50;17.50;;;;;14.67;64.38;101310.28;6268750;22;46107;-78
2022/03/15 14:26:59;;;;;;;;;22.25;21.75;;;;;14.60;64.48;101298.53;6242692;22;45712;-80
2022/03/15 14:29:30;;;;;;;;;27.75;23.75;;;;;14.64;64.89;101301.75;6269863;22;45503;-79
2022/03/15 14:32:05;;;;;;;;;25.50;24.75;;;;;14.65;64.60;101306.91;6268651;22;47007;-79
2022/03/15 14:34:35;;;;;;;;;32.75;30.00;;;;;14.64;64.91;101307.03;6267165;22;47983;-79
2022/03/15 14:37:11;;;;;;;;;35.00;29.50;;;;;14.48;65.30;101275.72;6269298;22;46169;-79
2022/03/15 14:39:42;;;;;;;;;23.75;20.25;;;;;14.63;65.06;101292.16;6268429;22;45800;-80
2022/03/15 14:42:10;;;;;;;;;28.50;25.75;;;;;14.45;65.02;101268.06;6261277;22;46461;-78
2022/03/15 14:44:39;;;;;;;;;29.50;27.75;;;;;14.62;65.13;101290.50;6241999;22;47282;-79
2022/03/15 14:47:09;;;;;;;;;30.25;27.00;;;;;14.63;65.00;101284.25;6241089;22;45824;-77
2022/03/15 14:49:34;;;;;;;;;31.00;27.00;;;;;14.64;65.58;101285.94;6269246;22;45673;-78
2022/03/15 14:52:00;;;;;;;;;34.25;30.50;;;;;14.62;65.61;101280.78;6266757;22;45670;-78
2022/03/15 14:54:27;;;;;;;;;31.75;25.00;;;;;14.56;65.20;101267.22;6268359;22;45895;-77
2022/03/15 14:56:53;;;;;;;;;33.75;27.25;;;;;14.66;65.17;101281.38;6268556;22;45660;-79
2022/03/15 14:59:19;;;;;;;;;29.00;28.75;;;;;14.58;65.49;101271.41;6268298;22;45489;-81
2022/03/15 15:01:45;;;;;;;;;33.75;29.25;;;;;14.58;65.34;101254.75;6267206;22;47304;-80
2022/03/15 15:04:10;;;;;;;;;31.25;27.00;;;;;14.53;65.54;101238.44;6268925;22;45899;-81
2022/03/15 15:06:37;;;;;;;;;29.50;26.00;;;;;14.75;65.54;101264.84;6268370;22;46017;-80
2022/03/15 15:09:06;;;;;;;;;33.75;28.00;;;;;14.75;65.35;101256.09;6269175;22;45558;-79
2022/03/15 15:11:35;;;;;;;;;25.75;25.75;;;;;14.83;65.37;101262.47;6264496;22;48352;-77
2022/03/15 15:14:03;;;;;;;;;22.00;17.75;;;;;14.75;65.50;101237.63;6268770;22;45991;-76
2022/03/15 15:16:28;;;;;;;;;21.25;21.00;;;;;14.87;65.57;101263.88;6269146;22;45752;-81
2022/03/15 15:18:55;;;;;;;;;26.75;23.25;;;;;14.48;65.44;101199.25;6268657;22;45748;-79
2022/03/15 15:21:21;;;;;;;;;21.75;20.50;;;;;14.92;65.58;101260.88;6267754;22;45650;-81
2022/03/15 15:23:48;;;;;;;;;23.75;21.25;;;;;14.93;65.56;101267.84;6241694;22;45610;-79
2022/03/15 15:26:13;;;;;;;;;20.25;18.75;;;;;14.89;65.24;101269.91;6268543;22;46005;-77
2022/03/15 15:28:40;;;;;;;;;17.50;17.25;;;;;14.92;65.33;101274.91;6268556;22;45534;-78
2022/03/15 15:31:06;;;;;;;;;21.75;17.00;;;;;14.88;65.21;101262.09;6267891;22;45552;-78
2022/03/15 15:33:32;;;;;;;;;24.25;19.25;;;;;14.88;65.17;101260.28;6268186;22;46025;-79
2022/03/15 15:35:58;;;;;;;;;24.00;19.75;;;;;14.72;65.17;101224.69;6270609;22;45597;-79
2022/03/15 15:38:26;;;;;;;;;22.50;16.50;;;;;14.97;65.36;101259.56;6270846;22;45619;-78
2022/03/15 15:40:54;;;;;;;;;17.75;16.75;;;;;14.82;65.42;101236.19;6269264;22;46005;-79
2022/03/15 15:43:25;;;;;;;;;17.75;16.00;;;;;14.90;64.80;101254.91;6270478;22;45956;-79
2022/03/15 15:45:51;;;;;;;;;19.25;17.25;;;;;14.97;64.95;101271.91;6270732;22;45660;-79
2022/03/15 15:48:19;;;;;;;;;19.50;15.50;;;;;15.00;65.02;101280.44;6270010;22;45601;-78
2022/03/15 15:50:47;;;;;;;;;17.50;14.50;;;;;14.98;65.01;101271.81;6269141;22;46262;-79
2022/03/15 15:53:14;;;;;;;;;16.75;15.75;;;;;14.92;65.41;101253.81;6268566;22;46120;-79
2022/03/15 15:55:42;;;;;;;;;16.75;14.25;;;;;14.94;65.40;101267.72;6243099;22;45758;-79
2022/03/15 15:58:08;;;;;;;;;15.75;14.75;;;;;14.94;65.26;101272.16;6270970;22;45930;-79
2022/03/15 16:00:36;;;;;;;;;13.50;13.50;;;;;14.81;65.29;101259.09;6269628;22;45904;-79
2022/03/15 16:03:03;;;;;;;;;14.50;13.00;;;;;14.89;65.22;101269.06;6270734;22;46002;-77
2022/03/15 16:05:30;;;;;;;;;16.25;14.50;;;;;14.87;65.33;101265.69;6270507;22;45565;-78
2022/03/15 16:07:57;;;;;;;;;16.00;14.50;;;;;14.85;65.38;101275.50;6271763;22;45569;-79
2022/03/15 16:10:23;;;;;;;;;14.25;12.75;;;;;14.79;65.73;101268.91;6269821;22;46494;-78
2022/03/15 16:12:50;;;;;;;;;14.75;14.00;;;;;14.83;65.51;101273.00;6270345;22;46867;-79
2022/03/15 16:15:23;;;;;;;;;15.25;13.25;;;;;14.83;65.15;101285.34;6270486;22;45497;-77
2022/03/15 16:17:52;;;;;;;;;15.00;13.00;;;;;14.81;65.46;101285.47;6270775;22;45978;-77
2022/03/15 16:20:19;;;;;;;;;12.00;11.75;;;;;14.81;65.29;101289.91;6269812;22;46351;-78
2022/03/15 16:22:45;;;;;;;;;11.00;10.50;;;;;14.79;65.40;101287.38;6271020;22;45996;-80
2022/03/15 16:25:12;;;;;;;;;12.00;11.25;;;;;14.57;65.26;101245.19;6270331;22;45644;-79
2022/03/15 16:27:38;;;;;;;;;10.00;10.00;;;;;14.79;65.44;101294.47;6270981;22;45592;-79
2022/03/15 16:30:06;;;;;;;;;13.00;11.50;;;;;14.79;65.31;101292.66;6270057;22;46703;-79
2022/03/15 16:32:31;;;;;;;;;9.50;8.25;;;;;14.72;65.50;101283.56;6270410;22;47436;-80
2022/03/15 16:34:58;;;;;;;;;12.75;11.50;;;;;14.62;65.24;101269.41;6272528;22;45590;-78
2022/03/15 16:37:25;;;;;;;;;14.00;12.50;;;;;14.79;65.19;101292.66;6272465;22;45548;-78
2022/03/15 16:39:52;;;;;;;;;11.75;8.75;;;;;14.80;65.12;101293.50;6271922;22;45981;-79
2022/03/15 16:42:18;;;;;;;;;12.25;11.00;;;;;14.69;65.22;101275.88;6272991;22;45397;-81
2022/03/15 16:44:46;;;;;;;;;11.75;11.00;;;;;14.76;65.27;101290.25;6272931;22;45593;-79
2022/03/15 16:47:12;;;;;;;;;12.50;12.50;;;;;14.80;65.38;101298.78;6271499;22;45729;-79
2022/03/15 16:49:38;;;;;;;;;13.00;13.00;;;;;14.80;65.38;101301.41;6271593;22;45578;-78
2022/03/15 16:52:07;;;;;;;;;13.50;12.75;;;;;14.79;65.16;101300.56;6284410;22;46329;-79
2022/03/15 16:54:36;;;;;;;;;14.25;13.00;;;;;14.79;64.92;101305.03;6286872;22;45333;-79
2022/03/15 16:57:04;;;;;;;;;13.00;12.00;;;;;14.78;65.14;101303.34;6285010;22;45539;-78
2022/03/15 16:59:30;;;;;;;;;13.50;13.00;;;;;14.76;65.17;101300.81;6272280;22;48064;-78
2022/03/15 17:01:55;;;;;;;;;13.75;13.00;;;;;14.73;65.15;101298.44;6271113;22;45664;-78
2022/03/15 17:07:05;;;;;;;;;13.25;12.50;;;;;14.78;65.12;101311.25;6273462;22;45653;-78
2022/03/15 17:09:31;;;;;;;;;16.00;15.00;;;;;14.83;65.13;101309.09;6274560;22;45553;-79
2022/03/15 17:12:06;;;;;;;;;14.50;13.75;;;;;14.84;65.36;101310.78;6291575;22;45936;-78
2022/03/15 17:14:34;;;;;;;;;15.50;14.25;;;;;14.82;65.08;101310.06;6295269;22;45017;-78
2022/03/15 17:17:11;;;;;;;;;14.00;12.75;;;;;14.85;65.18;101309.81;6296545;22;45817;-79
2022/03/15 17:19:44;;;;;;;;;14.00;12.00;;;;;14.84;65.38;101319.53;6278601;22;46095;-77
2022/03/15 17:22:12;;;;;;;;;16.50;15.00;;;;;14.77;65.43;101307.78;6269165;22;46304;-78
2022/03/15 17:24:39;;;;;;;;;16.00;15.25;;;;;14.77;65.26;101312.22;6269901;22;45714;-78
2022/03/15 17:27:06;;;;;;;;;13.50;12.00;;;;;14.80;65.28;101323.34;6269563;22;45662;-79
2022/03/15 17:29:33;;;;;;;;;15.75;13.50;;;;;14.75;65.40;101317.59;6269642;22;46289;-77
2022/03/15 17:32:02;;;;;;;;;13.00;11.75;;;;;14.83;65.23;101332.84;6269342;22;45968;-79
2022/03/15 17:34:29;;;;;;;;;14.00;13.50;;;;;14.82;65.45;101332.00;6270236;22;46049;-77
2022/03/15 17:36:57;;;;;;;;;14.25;12.25;;;;;14.82;65.13;101337.28;6270128;22;45548;-78
2022/03/15 17:39:23;;;;;;;;;11.25;10.50;;;;;14.79;65.28;101326.94;6271228;22;46395;-78
2022/03/15 17:41:56;;;;;;;;;12.25;11.50;;;;;14.81;65.25;101330.31;6272111;22;45899;-81
2022/03/15 17:44:23;;;;;;;;;11.00;10.00;;;;;14.80;65.41;101328.63;6275568;22;45720;-81
2022/03/15 17:46:53;;;;;;;;;14.00;13.00;;;;;14.79;64.99;101336.69;6274065;22;45321;-82
2022/03/15 17:49:22;;;;;;;;;13.00;12.25;;;;;14.75;65.25;101332.56;6273395;22;46240;-82
2022/03/15 17:51:48;;;;;;;;;13.00;13.00;;;;;14.74;65.40;101331.72;6271600;22;46605;-84
2022/03/15 17:54:28;;;;;;;;;13.75;11.75;;;;;14.55;65.26;101305.09;6273871;22;45553;-83
2022/03/15 17:56:56;;;;;;;;;13.75;12.75;;;;;14.52;65.47;101306.16;6274728;22;45721;-83
2022/03/15 17:59:24;;;;;;;;;13.75;12.75;;;;;14.74;65.52;101344.94;6245256;22;48272;-82
2022/03/15 18:01:54;;;;;;;;;14.75;13.25;;;;;14.55;65.57;101318.28;6274548;22;46219;-83
2022/03/15 18:04:21;;;;;;;;;14.50;13.75;;;;;14.62;65.36;101332.69;6275049;22;45498;-82
2022/03/15 18:06:51;;;;;;;;;16.50;14.75;;;;;14.62;65.41;101335.34;6273430;22;45634;-80
2022/03/15 18:09:18;;;;;;;;;13.75;12.50;;;;;14.65;65.48;101341.22;6246380;22;45489;-80
2022/03/15 18:11:44;;;;;;;;;13.00;13.00;;;;;14.49;65.39;101314.31;6271765;22;46053;-80
2022/03/15 18:14:11;;;;;;;;;15.25;14.00;;;;;14.56;65.49;101330.53;6271730;22;45665;-80
2022/03/15 18:16:41;;;;;;;;;15.50;15.50;;;;;14.45;65.62;101309.41;6244457;22;45532;-80
2022/03/15 18:19:08;;;;;;;;;20.75;15.75;;;;;14.54;65.77;101335.06;6272120;22;45577;-79
2022/03/15 18:21:35;;;;;;;;;18.00;16.00;;;;;14.44;65.61;101323.53;6272149;22;45983;-79
2022/03/15 18:24:08;;;;;;;;;16.50;16.00;;;;;14.44;65.60;101327.03;6244981;22;45634;-77
2022/03/15 18:26:35;;;;;;;;;19.00;15.25;;;;;14.49;66.04;101355.66;6272159;22;45625;-82
2022/03/15 18:29:01;;;;;;;;;15.75;14.00;;;;;14.51;66.15;101353.78;6272000;22;46707;-79
2022/03/15 18:31:27;;;;;;;;;16.75;14.75;;;;;14.50;65.98;101352.09;6271829;22;45753;-77
2022/03/15 18:33:56;;;;;;;;;16.50;15.25;;;;;14.39;66.19;101342.34;6272191;22;45731;-80
2022/03/15 18:36:22;;;;;;;;;16.00;15.25;;;;;14.41;66.13;101343.09;6272161;22;45679;-79
2022/03/15 18:38:48;;;;;;;;;19.00;17.75;;;;;14.37;66.14;101349.53;6269676;22;48329;-79
2022/03/15 18:41:14;;;;;;;;;17.50;14.00;;;;;14.30;66.25;101337.75;6243212;22;47956;-79
2022/03/15 18:47:03;;;;;;;;;18.75;17.75;;;;;14.21;66.37;101328.72;6271911;22;45630;-78
2022/03/15 18:49:29;;;;;;;;;19.50;18.75;;;;;14.33;66.42;101355.09;6271744;22;46256;-77
2022/03/15 18:51:55;;;;;;;;;20.00;19.25;;;;;14.34;66.44;101359.44;6243847;22;47207;-75
2022/03/15 18:54:22;;;;;;;;;16.25;13.75;;;;;14.36;66.42;101357.53;6271969;22;45475;-76
2022/03/15 18:56:48;;;;;;;;;20.50;18.75;;;;;14.34;66.70;101360.28;6271235;22;45621;-77
2022/03/15 18:59:14;;;;;;;;;19.50;16.50;;;;;14.34;66.49;101365.53;6243308;22;47487;-77
2022/03/15 19:01:41;;;;;;;;;21.00;18.50;;;;;14.35;66.73;101361.13;6270955;22;46302;-78
2022/03/15 19:04:06;;;;;;;;;19.75;18.25;;;;;14.32;66.96;101359.53;6271104;22;45535;-76
2022/03/15 19:06:39;;;;;;;;;20.00;18.75;;;;;14.34;66.65;101362.06;6271261;22;45733;-77
2022/03/15 19:09:06;;;;;;;;;21.00;18.00;;;;;14.32;66.47;101363.97;6244886;22;47562;-78
2022/03/15 19:11:41;;;;;;;;;18.25;18.25;;;;;14.26;66.88;101362.63;6270568;22;47341;-77
2022/03/15 19:17:29;;;;;;;;;19.00;15.50;;;;;14.28;66.99;101369.47;6271755;22;45455;-79
2022/03/15 19:19:54;;;;;;;;;23.00;19.75;;;;;14.23;66.70;101368.97;6270558;22;46498;-79
2022/03/15 19:22:21;;;;;;;;;22.25;19.75;;;;;14.22;66.64;101369.94;6271440;22;45917;-78
2022/03/15 19:24:50;;;;;;;;;20.00;18.75;;;;;14.25;67.12;101377.59;6271114;22;45611;-77
2022/03/15 19:27:16;;;;;;;;;22.00;20.50;;;;;14.26;66.89;101378.44;6270765;22;45565;-77
2022/03/15 19:29:42;;;;;;;;;20.00;18.75;;;;;14.27;67.05;101383.59;6269119;22;47810;-78
2022/03/15 19:32:07;;;;;;;;;20.00;18.25;;;;;14.26;67.23;101384.56;6270637;22;46240;-77
2022/03/15 19:34:33;;;;;;;;;23.00;20.00;;;;;14.26;67.23;101391.63;6270584;22;45884;-76
2022/03/15 19:36:58;;;;;;;;;21.25;19.25;;;;;14.24;67.37;101390.91;6271621;22;45648;-77
2022/03/15 19:39:24;;;;;;;;;18.50;17.75;;;;;14.24;67.17;101389.13;6271082;22;45596;-78
2022/03/15 19:41:50;;;;;;;;;19.50;18.75;;;;;14.19;67.18;101391.25;6269430;22;45918;-77
2022/03/15 19:44:16;;;;;;;;;19.00;19.00;;;;;14.21;66.90;101391.97;6270439;22;45738;-78
2022/03/15 19:46:43;;;;;;;;;22.00;21.00;;;;;14.23;67.15;101389.22;6243583;22;45413;-77
2022/03/15 19:49:17;;;;;;;;;23.25;20.75;;;;;14.18;67.11;101378.19;6271010;22;45522;-77
2022/03/15 19:51:49;;;;;;;;;22.00;18.75;;;;;14.26;66.98;101383.72;6271078;22;46052;-78
2022/03/15 19:54:15;;;;;;;;;20.00;18.75;;;;;14.15;66.89;101371.31;6268847;22;45483;-78
2022/03/15 19:56:44;;;;;;;;;19.25;17.75;;;;;14.25;67.28;101384.69;6270816;22;45480;-78
2022/03/15 19:59:13;;;;;;;;;19.75;18.25;;;;;14.20;67.28;101379.72;6270471;22;46531;-77
2022/03/15 20:01:41;;;;;;;;;19.00;16.75;;;;;14.15;66.93;101371.31;6270474;22;46160;-78
2022/03/15 20:04:07;;;;;;;;;19.25;18.50;;;;;14.23;66.98;101382.16;6271787;22;45463;-77
2022/03/15 20:06:33;;;;;;;;;20.00;18.00;;;;;14.19;66.85;101383.34;6271096;22;45721;-77
2022/03/15 20:09:01;;;;;;;;;17.75;17.00;;;;;14.23;67.24;101386.59;6271094;22;46278;-78
2022/03/15 20:11:28;;;;;;;;;20.50;17.50;;;;;14.24;67.07;101380.38;6270615;22;46087;-77
2022/03/15 20:13:59;;;;;;;;;20.00;17.50;;;;;14.23;67.00;101389.22;6270881;22;45556;-78
2022/03/15 20:16:25;;;;;;;;;20.25;18.50;;;;;14.21;67.42;101385.84;6270823;22;45587;-76
2022/03/15 20:18:50;;;;;;;;;18.25;15.50;;;;;14.15;67.38;101378.38;6268967;22;48370;-78
2022/03/15 20:21:17;;;;;;;;;17.75;16.50;;;;;14.17;67.32;101377.34;6270422;22;47348;-78
2022/03/15 20:23:51;;;;;;;;;19.50;17.00;;;;;14.16;67.28;101378.28;6272904;22;45703;-77
2022/03/15 20:26:17;;;;;;;;;20.25;16.25;;;;;14.14;67.36;101369.63;6272226;22;45535;-77
2022/03/15 20:28:43;;;;;;;;;18.50;17.50;;;;;14.14;67.12;101371.47;6271869;22;47111;-76
2022/03/15 20:31:11;;;;;;;;;22.00;19.00;;;;;14.06;67.52;101350.09;6271704;22;46179;-76
2022/03/15 20:33:38;;;;;;;;;15.00;15.00;;;;;14.11;67.06;101363.75;6272235;22;45707;-77
2022/03/15 20:36:03;;;;;;;;;17.00;15.25;;;;;14.03;67.24;101353.81;6245096;22;45526;-78
2022/03/15 20:38:29;;;;;;;;;23.00;18.00;;;;;14.06;67.09;101365.91;6271630;22;46615;-76
2022/03/15 20:40:55;;;;;;;;;19.75;15.75;;;;;14.05;66.99;101359.78;6272387;22;45605;-76
2022/03/15 20:46:10;;;;;;;;;19.50;18.75;;;;;14.01;67.34;101358.34;6272652;22;45516;-77
2022/03/15 20:48:36;;;;;;;;;18.50;17.00;;;;;13.98;67.65;101344.56;6272579;22;46802;-76
2022/03/15 20:51:03;;;;;;;;;20.00;19.25;;;;;13.92;67.61;101345.00;6270844;22;46579;-76
2022/03/15 20:53:28;;;;;;;;;18.75;17.75;;;;;13.83;67.41;101323.63;6271896;22;45593;-76
2022/03/15 20:55:56;;;;;;;;;18.50;16.50;;;;;13.95;67.27;101353.50;6271397;22;45532;-76
2022/03/15 20:58:25;;;;;;;;;25.25;21.25;;;;;13.85;67.84;101344.59;6270634;22;47264;-75
2022/03/15 21:00:50;;;;;;;;;20.00;18.25;;;;;13.94;67.34;101358.88;6270272;22;46306;-76
2022/03/15 21:03:22;;;;;;;;;19.00;18.75;;;;;13.93;67.69;101346.69;6270974;22;45595;-76
2022/03/15 21:05:51;;;;;;;;;21.50;18.25;;;;;13.91;68.10;101354.69;6271996;22;45611;-74
2022/03/15 21:08:16;;;;;;;;;20.25;19.00;;;;;13.88;67.46;101355.75;6270675;22;46385;-77
2022/03/15 21:10:42;;;;;;;;;20.75;19.50;;;;;13.84;68.26;101346.41;6270905;22;45978;-78
2022/03/15 21:19:46;;;;;;;;;24.25;21.00;;;;;13.77;68.25;101337.25;6270800;22;45626;-76
2022/03/15 21:22:12;;;;;;;;;21.25;20.50;;;;;13.73;68.29;101333.16;6271479;22;45759;-76
2022/03/15 21:24:38;;;;;;;;;22.00;20.25;;;;;13.73;67.65;101327.91;6269172;22;45893;-74
2022/03/15 21:27:04;;;;;;;;;26.00;22.50;;;;;13.71;68.13;101334.25;6271210;22;45672;-75
2022/03/15 21:29:31;;;;;;;;;22.50;19.25;;;;;13.71;68.20;101331.59;6270013;22;47203;-73
2022/03/15 21:31:57;;;;;;;;;21.75;19.00;;;;;13.69;67.78;101329.06;6270804;22;46900;-75
2022/03/15 21:34:23;;;;;;;;;21.25;21.25;;;;;13.69;68.20;101336.13;6271150;22;45491;-74
2022/03/15 21:36:49;;;;;;;;;20.00;19.75;;;;;13.69;68.07;101329.06;6271795;22;45733;-74
2022/03/15 21:39:15;;;;;;;;;23.50;19.50;;;;;13.68;68.39;101323.91;6270869;22;45642;-74
2022/03/15 21:41:43;;;;;;;;;21.50;20.00;;;;;13.66;67.92;101326.66;6271705;22;46016;-75
2022/03/15 21:44:10;;;;;;;;;21.75;19.75;;;;;13.56;68.48;101306.38;6270838;22;46009;-73
2022/03/15 21:46:39;;;;;;;;;19.50;18.00;;;;;13.63;68.30;101321.63;6271463;22;45720;-75
2022/03/15 21:49:10;;;;;;;;;17.00;17.00;;;;;13.61;68.68;101320.88;6243187;22;46971;-74
2022/03/15 21:51:42;;;;;;;;;19.00;17.75;;;;;13.59;68.11;101316.69;6270257;22;46132;-75
2022/03/15 21:54:14;;;;;;;;;20.25;18.25;;;;;13.58;68.51;101322.91;6271496;22;45629;-74
2022/03/15 21:56:41;;;;;;;;;20.75;18.25;;;;;13.49;68.26;101313.03;6270884;22;45518;-77
2022/03/15 21:59:07;;;;;;;;;20.75;19.25;;;;;13.54;68.12;101324.94;6270855;22;45513;-77
2022/03/15 22:01:34;;;;;;;;;20.50;19.00;;;;;13.55;68.16;101328.41;6270162;22;47075;-75
2022/03/15 22:03:59;;;;;;;;;17.75;16.75;;;;;13.50;68.73;101322.59;6271579;22;45506;-76
2022/03/15 22:06:24;;;;;;;;;17.00;16.50;;;;;13.52;68.30;101326.81;6271588;22;45637;-75
2022/03/15 22:08:50;;;;;;;;;16.25;15.75;;;;;13.48;68.53;101330.63;6271343;22;46477;-77
2022/03/15 22:11:15;;;;;;;;;19.25;18.25;;;;;13.51;68.27;101333.03;6243864;22;45617;-75
2022/03/15 22:13:41;;;;;;;;;18.25;16.75;;;;;13.51;68.22;101334.81;6271132;22;45910;-75
2022/03/15 22:19:28;;;;;;;;;17.00;15.75;;;;;13.50;68.58;101335.75;6270793;22;45637;-76
2022/03/15 22:21:54;;;;;;;;;16.00;13.25;;;;;13.45;68.38;101333.47;6271735;22;46362;-75
2022/03/15 22:24:22;;;;;;;;;18.75;16.50;;;;;13.49;68.18;101345.47;6243935;22;45802;-75
2022/03/15 22:26:47;;;;;;;;;16.75;15.75;;;;;13.49;68.71;101339.38;6271495;22;45511;-75
2022/03/15 22:29:13;;;;;;;;;17.75;16.00;;;;;13.48;68.24;101337.69;6242230;22;48334;-76
2022/03/15 23:17:52;;;;;;;;;17.25;16.50;;;;;13.48;68.74;101353.47;6270958;22;45448;-75
2022/03/15 23:23:02;;;;;;;;;17.25;16.25;;;;;13.42;68.78;101325.78;6270900;22;45590;-76
2022/03/15 23:25:27;;;;;;;;;19.00;17.25;;;;;13.48;68.97;101342.94;6271349;22;45451;-75
2022/03/15 23:28:03;;;;;;;;;19.25;18.00;;;;;13.34;68.78;101320.22;6270222;22;45518;-77
2022/03/15 23:30:31;;;;;;;;;19.75;17.75;;;;;13.47;68.77;101339.47;6269782;22;45753;-76
2022/03/15 23:32:57;;;;;;;;;17.50;17.25;;;;;13.47;68.50;101336.84;6270326;22;47565;-76
2022/03/15 23:35:23;;;;;;;;;17.75;16.25;;;;;13.48;68.76;101340.31;6270986;22;45882;-75
2022/03/15 23:37:51;;;;;;;;;18.00;17.00;;;;;13.48;68.67;101338.53;6270207;22;45555;-75
2022/03/15 23:40:19;;;;;;;;;13.75;13.00;;;;;13.49;68.78;101334.94;6270014;22;45744;-76
2022/03/15 23:42:45;;;;;;;;;19.00;17.75;;;;;13.41;68.75;101317.06;6270585;22;45582;-76
2022/03/15 23:45:11;;;;;;;;;16.50;15.50;;;;;13.47;68.93;101325.47;6270547;22;46203;-76
2022/03/15 23:47:39;;;;;;;;;18.00;16.75;;;;;13.43;68.90;101323.06;6269994;22;45499;-75
2022/03/15 23:50:06;;;;;;;;;17.75;16.75;;;;;13.50;68.96;101330.50;6270299;22;45558;-75
2022/03/15 23:52:32;;;;;;;;;19.00;17.50;;;;;13.51;68.73;101326.91;6270013;22;46318;-76
2022/03/15 23:54:58;;;;;;;;;19.50;18.50;;;;;13.49;68.77;101327.06;6270395;22;45959;-74
2022/03/15 23:57:23;;;;;;;;;18.25;18.00;;;;;13.48;68.67;101317.47;6243551;22;45621;-76
2022/03/15 23:59:49;;;;;;;;;20.00;17.75;;;;;13.47;69.08;101312.31;6271684;22;45524;-76
